createdAt,value
2018-11-23T00:00:06.898Z,977.28
2018-11-23T00:01:06.891Z,977.24
2018-11-23T00:02:06.887Z,977.27
2018-11-23T00:03:06.905Z,977.30
2018-11-23T00:04:06.875Z,977.30
2018-11-23T00:05:06.869Z,977.25
2018-11-23T00:06:06.864Z,977.30
2018-11-23T00:07:06.855Z,977.37
2018-11-23T00:08:06.876Z,977.47
2018-11-23T00:09:06.849Z,977.47
2018-11-23T00:10:06.835Z,977.44
2018-11-23T00:11:06.834Z,977.51
2018-11-23T00:12:06.824Z,977.59
2018-11-23T00:13:06.854Z,977.59
2018-11-23T00:14:06.811Z,977.56
2018-11-23T00:15:06.813Z,977.54
2018-11-23T00:16:06.806Z,977.49
2018-11-23T00:17:06.803Z,977.44
2018-11-23T00:18:06.818Z,977.42
2018-11-23T00:19:06.789Z,977.39
2018-11-23T00:20:06.784Z,977.37
2018-11-23T00:21:06.776Z,977.31
2018-11-23T00:22:06.771Z,977.30
2018-11-23T00:23:06.796Z,977.28
2018-11-23T00:24:06.750Z,977.23
2018-11-23T00:25:06.764Z,977.22
2018-11-23T00:26:06.746Z,977.20
2018-11-23T00:27:06.739Z,977.24
2018-11-23T00:28:06.763Z,977.24
2018-11-23T00:29:06.758Z,977.21
2018-11-23T00:30:06.729Z,977.20
2018-11-23T00:31:06.714Z,977.18
2018-11-23T00:32:06.711Z,977.14
2018-11-23T00:33:06.706Z,977.08
2018-11-23T00:34:06.731Z,977.03
2018-11-23T00:35:06.693Z,976.97
2018-11-23T00:36:06.691Z,976.94
2018-11-23T00:37:06.676Z,976.93
2018-11-23T00:38:06.683Z,976.92
2018-11-23T00:39:06.699Z,976.95
2018-11-23T00:40:06.667Z,976.98
2018-11-23T00:41:06.651Z,976.94
2018-11-23T00:42:06.653Z,976.97
2018-11-23T00:43:06.677Z,977.01
2018-11-23T00:44:06.642Z,977.03
2018-11-23T00:45:06.637Z,977.07
2018-11-23T00:46:06.629Z,977.09
2018-11-23T00:47:06.625Z,977.11
2018-11-23T00:48:06.642Z,977.07
2018-11-23T00:49:06.613Z,977.08
2018-11-23T00:50:06.609Z,977.08
2018-11-23T00:51:06.599Z,977.10
2018-11-23T00:52:06.590Z,977.07
2018-11-23T00:53:06.621Z,977.15
2018-11-23T00:54:06.579Z,977.18
2018-11-23T00:55:06.579Z,977.15
2018-11-23T00:56:06.578Z,977.17
2018-11-23T00:57:06.570Z,977.21
2018-11-23T00:58:06.585Z,977.26
2018-11-23T00:59:06.557Z,977.28
2018-11-23T01:00:06.548Z,977.29
2018-11-23T01:01:06.544Z,977.30
2018-11-23T01:02:06.540Z,977.27
2018-11-23T01:03:06.557Z,977.25
2018-11-23T01:04:06.524Z,977.26
2018-11-23T01:05:06.517Z,977.28
2018-11-23T01:06:06.512Z,977.32
2018-11-23T01:07:06.514Z,977.33
2018-11-23T01:08:06.532Z,977.32
2018-11-23T01:09:06.494Z,977.25
2018-11-23T01:10:06.493Z,977.18
2018-11-23T01:11:06.485Z,977.11
2018-11-23T01:12:06.477Z,977.13
2018-11-23T01:13:06.495Z,977.16
2018-11-23T01:14:06.464Z,977.14
2018-11-23T01:15:06.458Z,977.14
2018-11-23T01:16:06.459Z,977.06
2018-11-23T01:17:06.476Z,977.01
2018-11-23T01:18:06.446Z,977.02
2018-11-23T01:19:06.436Z,977.09
2018-11-23T01:20:06.433Z,977.05
2018-11-23T01:21:06.424Z,977.10
2018-11-23T01:22:06.448Z,977.10
2018-11-23T01:23:06.411Z,977.19
2018-11-23T01:24:06.408Z,977.18
2018-11-23T01:25:06.399Z,977.25
2018-11-23T01:26:06.448Z,977.27
2018-11-23T01:27:06.420Z,977.30
2018-11-23T01:28:06.387Z,977.34
2018-11-23T01:29:06.379Z,977.34
2018-11-23T01:30:06.375Z,977.38
2018-11-23T01:31:06.367Z,977.41
2018-11-23T01:32:06.385Z,977.40
2018-11-23T01:33:06.355Z,977.39
2018-11-23T01:34:06.348Z,977.43
2018-11-23T01:35:06.343Z,977.48
2018-11-23T01:36:06.339Z,977.45
2018-11-23T01:37:06.364Z,977.46
2018-11-23T01:38:06.327Z,977.48
2018-11-23T01:39:06.319Z,977.45
2018-11-23T01:40:06.313Z,977.41
2018-11-23T01:41:06.311Z,977.46
2018-11-23T01:42:06.331Z,977.42
2018-11-23T01:43:06.296Z,977.40
2018-11-23T01:44:06.289Z,977.35
2018-11-23T01:45:06.287Z,977.41
2018-11-23T01:46:06.279Z,977.44
2018-11-23T01:47:06.303Z,977.43
2018-11-23T01:48:06.273Z,977.54
2018-11-23T01:49:06.271Z,977.49
2018-11-23T01:50:06.258Z,977.51
2018-11-23T01:51:06.275Z,977.46
2018-11-23T01:52:06.247Z,977.47
2018-11-23T01:53:06.243Z,977.47
2018-11-23T01:54:06.233Z,977.52
2018-11-23T01:55:06.262Z,977.51
2018-11-23T01:56:06.223Z,977.49
2018-11-23T01:57:06.246Z,977.56
2018-11-23T01:58:06.215Z,977.56
2018-11-23T01:59:06.206Z,977.61
2018-11-23T02:00:06.202Z,977.57
2018-11-23T02:01:06.194Z,977.57
2018-11-23T02:02:06.215Z,977.53
2018-11-23T02:03:06.186Z,977.47
2018-11-23T02:04:06.180Z,977.45
2018-11-23T02:05:06.172Z,977.44
2018-11-23T02:06:06.165Z,977.35
2018-11-23T02:07:06.194Z,977.43
2018-11-23T02:08:06.180Z,977.44
2018-11-23T02:09:06.149Z,977.49
2018-11-23T02:10:06.143Z,977.52
2018-11-23T02:11:06.139Z,977.56
2018-11-23T02:12:06.126Z,977.56
2018-11-23T02:13:06.154Z,977.60
2018-11-23T02:14:06.126Z,977.64
2018-11-23T02:15:06.117Z,977.57
2018-11-23T02:16:06.110Z,977.52
2018-11-23T02:17:06.130Z,977.49
2018-11-23T02:18:06.094Z,977.42
2018-11-23T02:19:06.090Z,977.41
2018-11-23T02:20:06.087Z,977.45
2018-11-23T02:21:06.082Z,977.43
2018-11-23T02:22:06.101Z,977.43
2018-11-23T02:23:06.070Z,977.39
2018-11-23T02:24:06.063Z,977.41
2018-11-23T02:25:06.057Z,977.42
2018-11-23T02:26:06.041Z,977.48
2018-11-23T02:27:06.071Z,977.49
2018-11-23T02:28:06.038Z,977.42
2018-11-23T02:29:06.031Z,977.42
2018-11-23T02:30:06.022Z,977.38
2018-11-23T02:31:06.021Z,977.44
2018-11-23T02:32:06.046Z,977.32
2018-11-23T02:33:06.045Z,977.33
2018-11-23T02:34:06.007Z,977.30
2018-11-23T02:35:05.993Z,977.27
2018-11-23T02:36:05.995Z,977.26
2018-11-23T02:37:05.989Z,977.23
2018-11-23T02:38:06.017Z,977.22
2018-11-23T02:39:05.980Z,977.21
2018-11-23T02:40:05.969Z,977.20
2018-11-23T02:41:05.964Z,977.14
2018-11-23T02:42:05.957Z,977.13
2018-11-23T02:43:05.979Z,977.06
2018-11-23T02:44:05.949Z,977.08
2018-11-23T02:45:05.945Z,977.08
2018-11-23T02:46:05.940Z,977.05
2018-11-23T02:47:05.929Z,977.11
2018-11-23T02:48:05.953Z,977.11
2018-11-23T02:49:05.929Z,977.11
2018-11-23T02:50:05.908Z,977.18
2018-11-23T02:51:05.912Z,977.22
2018-11-23T02:52:05.899Z,977.19
2018-11-23T02:53:05.924Z,977.20
2018-11-23T02:54:05.888Z,977.18
2018-11-23T02:55:05.885Z,977.21
2018-11-23T02:56:05.881Z,977.22
2018-11-23T02:57:05.876Z,977.22
2018-11-23T02:58:05.898Z,977.19
2018-11-23T02:59:05.859Z,977.21
2018-11-23T03:00:05.856Z,977.22
2018-11-23T03:01:05.852Z,977.13
2018-11-23T03:02:05.847Z,977.04
2018-11-23T03:03:05.864Z,977.00
2018-11-23T03:04:05.832Z,976.96
2018-11-23T03:05:05.824Z,976.93
2018-11-23T03:06:05.820Z,976.88
2018-11-23T03:07:05.813Z,976.88
2018-11-23T03:08:05.836Z,976.90
2018-11-23T03:09:05.808Z,976.90
2018-11-23T03:10:05.803Z,976.96
2018-11-23T03:11:05.787Z,977.00
2018-11-23T03:12:05.789Z,977.05
2018-11-23T03:13:05.807Z,977.06
2018-11-23T03:14:05.777Z,977.04
2018-11-23T03:15:05.768Z,977.05
2018-11-23T03:16:05.763Z,977.00
2018-11-23T03:17:05.765Z,977.02
2018-11-23T03:18:05.787Z,977.00
2018-11-23T03:19:05.747Z,977.04
2018-11-23T03:20:05.736Z,977.10
2018-11-23T03:21:05.735Z,977.11
2018-11-23T03:22:05.727Z,977.14
2018-11-23T03:23:05.750Z,977.12
2018-11-23T03:24:05.714Z,977.18
2018-11-23T03:25:05.711Z,977.15
2018-11-23T03:26:05.704Z,977.20
2018-11-23T03:27:05.699Z,977.26
2018-11-23T03:28:05.717Z,977.31
2018-11-23T03:29:05.690Z,977.29
2018-11-23T03:30:05.675Z,977.29
2018-11-23T03:31:12.314Z,977.34
2018-11-23T03:32:05.671Z,977.35
2018-11-23T03:33:05.692Z,977.36
2018-11-23T03:34:05.658Z,977.34
2018-11-23T03:35:05.654Z,977.40
2018-11-23T03:36:05.655Z,977.42
2018-11-23T03:37:05.642Z,977.42
2018-11-23T03:38:05.662Z,977.49
2018-11-23T03:39:05.631Z,977.46
2018-11-23T03:40:05.627Z,977.44
2018-11-23T03:41:05.619Z,977.51
2018-11-23T03:42:05.610Z,977.48
2018-11-23T03:43:05.631Z,977.48
2018-11-23T03:44:05.598Z,977.49
2018-11-23T03:45:05.600Z,977.53
2018-11-23T03:46:05.586Z,977.48
2018-11-23T03:47:05.590Z,977.53
2018-11-23T03:48:05.608Z,977.56
2018-11-23T03:49:05.566Z,977.53
2018-11-23T03:50:05.567Z,977.53
2018-11-23T03:51:05.553Z,977.60
2018-11-23T03:52:05.555Z,977.57
2018-11-23T03:53:05.574Z,977.55
2018-11-23T03:54:05.547Z,977.54
2018-11-23T03:55:05.534Z,977.52
2018-11-23T03:56:05.531Z,977.57
2018-11-23T03:57:05.526Z,977.52
2018-11-23T03:58:05.554Z,977.60
2018-11-23T03:59:05.510Z,977.56
2018-11-23T04:00:05.506Z,977.63
2018-11-23T04:01:05.502Z,977.56
2018-11-23T04:02:05.494Z,977.52
2018-11-23T04:03:05.518Z,977.58
2018-11-23T04:04:05.481Z,977.57
2018-11-23T04:05:05.477Z,977.54
2018-11-23T04:06:05.471Z,977.57
2018-11-23T04:07:05.465Z,977.54
2018-11-23T04:08:05.489Z,977.48
2018-11-23T04:09:05.454Z,977.51
2018-11-23T04:10:05.446Z,977.52
2018-11-23T04:11:05.440Z,977.46
2018-11-23T04:12:05.437Z,977.47
2018-11-23T04:13:05.460Z,977.53
2018-11-23T04:14:05.418Z,977.49
2018-11-23T04:15:05.417Z,977.45
2018-11-23T04:16:05.418Z,977.47
2018-11-23T04:17:05.406Z,977.47
2018-11-23T04:18:05.424Z,977.47
2018-11-23T04:19:05.399Z,977.47
2018-11-23T04:20:05.391Z,977.42
2018-11-23T04:21:05.387Z,977.44
2018-11-23T04:22:05.376Z,977.47
2018-11-23T04:23:05.395Z,977.42
2018-11-23T04:24:05.364Z,977.49
2018-11-23T04:25:05.357Z,977.50
2018-11-23T04:26:05.353Z,977.51
2018-11-23T04:27:05.345Z,977.45
2018-11-23T04:28:05.366Z,977.46
2018-11-23T04:29:05.332Z,977.46
2018-11-23T04:30:05.330Z,977.48
2018-11-23T04:31:05.319Z,977.48
2018-11-23T04:32:05.316Z,977.53
2018-11-23T04:33:05.337Z,977.56
2018-11-23T04:34:05.306Z,977.52
2018-11-23T04:35:05.296Z,977.57
2018-11-23T04:36:05.292Z,977.54
2018-11-23T04:37:05.292Z,977.55
2018-11-23T04:38:05.304Z,977.54
2018-11-23T04:39:05.274Z,977.53
2018-11-23T04:40:05.268Z,977.53
2018-11-23T04:41:05.265Z,977.51
2018-11-23T04:42:05.259Z,977.48
2018-11-23T04:43:05.281Z,977.45
2018-11-23T04:44:05.243Z,977.50
2018-11-23T04:45:05.233Z,977.47
2018-11-23T04:46:05.238Z,977.50
2018-11-23T04:47:05.231Z,977.51
2018-11-23T04:48:05.246Z,977.51
2018-11-23T04:49:05.213Z,977.50
2018-11-23T04:50:05.203Z,977.51
2018-11-23T04:51:05.199Z,977.46
2018-11-23T04:52:05.196Z,977.50
2018-11-23T04:53:05.221Z,977.51
2018-11-23T04:54:05.188Z,977.49
2018-11-23T04:55:05.176Z,977.55
2018-11-23T04:56:05.174Z,977.56
2018-11-23T04:57:05.162Z,977.56
2018-11-23T04:58:05.186Z,977.58
2018-11-23T04:59:05.150Z,977.59
2018-11-23T05:00:05.144Z,977.61
2018-11-23T05:01:05.139Z,977.60
2018-11-23T05:02:05.131Z,977.58
2018-11-23T05:03:05.151Z,977.59
2018-11-23T05:04:05.938Z,977.60
2018-11-23T05:05:05.114Z,977.60
2018-11-23T05:06:05.108Z,977.63
2018-11-23T05:07:05.095Z,977.67
2018-11-23T05:08:05.122Z,977.63
2018-11-23T05:09:05.087Z,977.62
2018-11-23T05:10:05.082Z,977.60
2018-11-23T05:11:05.074Z,977.54
2018-11-23T05:12:05.070Z,977.52
2018-11-23T05:13:05.091Z,977.55
2018-11-23T05:14:05.054Z,977.49
2018-11-23T05:15:05.050Z,977.51
2018-11-23T05:16:05.045Z,977.48
2018-11-23T05:17:05.037Z,977.48
2018-11-23T05:18:05.058Z,977.48
2018-11-23T05:19:05.025Z,977.53
2018-11-23T05:20:05.020Z,977.48
2018-11-23T05:21:05.022Z,977.47
2018-11-23T05:22:05.005Z,977.44
2018-11-23T05:23:05.029Z,977.42
2018-11-23T05:24:04.992Z,977.38
2018-11-23T05:25:04.985Z,977.35
2018-11-23T05:26:04.977Z,977.33
2018-11-23T05:27:04.973Z,977.30
2018-11-23T05:28:04.996Z,977.29
2018-11-23T05:29:04.961Z,977.30
2018-11-23T05:30:04.953Z,977.21
2018-11-23T05:31:04.945Z,977.32
2018-11-23T05:32:04.942Z,977.26
2018-11-23T05:33:04.964Z,977.25
2018-11-23T05:34:04.929Z,977.21
2018-11-23T05:35:04.922Z,977.22
2018-11-23T05:36:04.914Z,977.18
2018-11-23T05:37:04.908Z,977.23
2018-11-23T05:38:04.931Z,977.22
2018-11-23T05:39:04.901Z,977.20
2018-11-23T05:40:04.889Z,977.16
2018-11-23T05:41:04.885Z,977.13
2018-11-23T05:42:04.877Z,977.13
2018-11-23T05:43:04.911Z,977.13
2018-11-23T05:44:04.860Z,977.14
2018-11-23T05:45:04.856Z,977.14
2018-11-23T05:46:04.848Z,977.15
2018-11-23T05:47:04.844Z,977.13
2018-11-23T05:48:04.864Z,977.10
2018-11-23T05:49:04.829Z,977.08
2018-11-23T05:50:05.441Z,977.05
2018-11-23T05:51:04.816Z,977.01
2018-11-23T05:52:04.811Z,977.01
2018-11-23T05:53:04.829Z,976.99
2018-11-23T05:54:04.798Z,977.01
2018-11-23T05:55:04.788Z,977.00
2018-11-23T05:56:04.788Z,976.96
2018-11-23T05:57:04.775Z,976.95
2018-11-23T05:58:04.796Z,976.97
2018-11-23T05:59:04.762Z,976.97
2018-11-23T06:00:04.752Z,976.99
2018-11-23T06:01:04.795Z,976.94
2018-11-23T06:02:04.742Z,976.94
2018-11-23T06:03:04.759Z,976.94
2018-11-23T06:04:04.731Z,976.88
2018-11-23T06:05:04.729Z,976.90
2018-11-23T06:06:04.715Z,976.87
2018-11-23T06:07:04.708Z,976.82
2018-11-23T06:08:04.730Z,976.83
2018-11-23T06:09:04.695Z,976.86
2018-11-23T06:10:04.767Z,976.88
2018-11-23T06:11:04.683Z,976.91
2018-11-23T06:12:04.675Z,976.89
2018-11-23T06:13:04.703Z,976.93
2018-11-23T06:14:04.663Z,976.85
2018-11-23T06:15:04.655Z,976.93
2018-11-23T06:16:04.647Z,976.86
2018-11-23T06:17:04.642Z,976.89
2018-11-23T06:18:04.661Z,976.86
2018-11-23T06:19:04.626Z,976.88
2018-11-23T06:20:04.623Z,976.86
2018-11-23T06:21:04.600Z,976.89
2018-11-23T06:22:04.633Z,976.88
2018-11-23T06:23:04.601Z,976.88
2018-11-23T06:24:04.589Z,976.90
2018-11-23T06:25:04.590Z,976.90
2018-11-23T06:26:04.582Z,976.92
2018-11-23T06:27:04.605Z,976.95
2018-11-23T06:28:04.569Z,976.93
2018-11-23T06:29:04.562Z,976.95
2018-11-23T06:30:04.553Z,976.96
2018-11-23T06:31:04.577Z,976.94
2018-11-23T06:32:04.547Z,976.94
2018-11-23T06:33:04.537Z,976.96
2018-11-23T06:34:04.526Z,976.99
2018-11-23T06:35:04.522Z,976.97
2018-11-23T06:36:05.014Z,976.93
2018-11-23T06:37:04.553Z,976.91
2018-11-23T06:38:04.501Z,976.88
2018-11-23T06:39:04.498Z,976.97
2018-11-23T06:40:04.489Z,977.00
2018-11-23T06:41:10.155Z,977.04
2018-11-23T06:42:04.502Z,977.00
2018-11-23T06:43:04.470Z,976.95
2018-11-23T06:44:04.457Z,976.96
2018-11-23T06:45:04.452Z,976.94
2018-11-23T06:46:04.448Z,976.94
2018-11-23T06:47:04.471Z,976.95
2018-11-23T06:48:04.436Z,977.02
2018-11-23T06:49:04.428Z,977.01
2018-11-23T06:50:04.455Z,976.99
2018-11-23T06:51:04.412Z,976.93
2018-11-23T06:52:04.436Z,976.99
2018-11-23T06:53:04.399Z,976.91
2018-11-23T06:54:04.400Z,976.99
2018-11-23T06:55:04.389Z,976.94
2018-11-23T06:56:04.385Z,976.94
2018-11-23T06:57:04.400Z,976.91
2018-11-23T06:58:04.364Z,976.84
2018-11-23T06:59:04.360Z,976.85
2018-11-23T07:00:04.352Z,976.93
2018-11-23T07:01:04.348Z,976.96
2018-11-23T07:02:04.366Z,976.96
2018-11-23T07:03:04.341Z,976.97
2018-11-23T07:04:04.329Z,976.96
2018-11-23T07:05:04.323Z,976.96
2018-11-23T07:06:04.312Z,977.02
2018-11-23T07:07:04.342Z,976.99
2018-11-23T07:08:04.292Z,977.01
2018-11-23T07:09:04.303Z,977.04
2018-11-23T07:10:04.288Z,977.02
2018-11-23T07:11:04.314Z,977.05
2018-11-23T07:12:04.285Z,977.01
2018-11-23T07:13:04.270Z,976.98
2018-11-23T07:14:04.263Z,977.00
2018-11-23T07:15:04.254Z,977.00
2018-11-23T07:16:04.288Z,977.00
2018-11-23T07:17:04.271Z,976.97
2018-11-23T07:18:04.234Z,976.96
2018-11-23T07:19:04.231Z,976.96
2018-11-23T07:20:04.221Z,976.97
2018-11-23T07:21:04.217Z,977.01
2018-11-23T07:22:04.234Z,976.94
2018-11-23T07:23:04.202Z,976.91
2018-11-23T07:24:04.194Z,976.92
2018-11-23T07:25:04.190Z,976.90
2018-11-23T07:26:04.182Z,976.87
2018-11-23T07:27:04.203Z,976.92
2018-11-23T07:28:04.168Z,976.95
2018-11-23T07:29:04.166Z,976.98
2018-11-23T07:30:04.153Z,976.91
2018-11-23T07:31:04.151Z,977.01
2018-11-23T07:32:04.169Z,977.03
2018-11-23T07:33:04.137Z,976.98
2018-11-23T07:34:04.137Z,977.01
2018-11-23T07:35:04.126Z,977.04
2018-11-23T07:36:04.145Z,977.04
2018-11-23T07:37:04.138Z,977.05
2018-11-23T07:38:04.105Z,977.01
2018-11-23T07:39:04.097Z,977.06
2018-11-23T07:40:04.093Z,976.99
2018-11-23T07:41:04.081Z,977.05
2018-11-23T07:42:04.106Z,977.01
2018-11-23T07:43:04.074Z,977.03
2018-11-23T07:44:04.065Z,977.00
2018-11-23T07:45:04.061Z,977.04
2018-11-23T07:46:04.081Z,977.01
2018-11-23T07:47:04.044Z,977.06
2018-11-23T07:48:04.041Z,977.03
2018-11-23T07:49:04.036Z,977.12
2018-11-23T07:50:04.029Z,977.21
2018-11-23T07:51:04.061Z,977.31
2018-11-23T07:52:04.025Z,977.39
2018-11-23T07:53:04.940Z,977.49
2018-11-23T07:54:04.009Z,977.61
2018-11-23T07:55:04.013Z,977.70
2018-11-23T07:56:04.040Z,977.73
2018-11-23T07:57:03.997Z,977.88
2018-11-23T07:58:04.005Z,977.92
2018-11-23T07:59:03.977Z,978.03
2018-11-23T08:00:03.973Z,978.05
2018-11-23T08:01:04.009Z,978.03
2018-11-23T08:02:03.963Z,977.96
2018-11-23T08:03:03.960Z,977.95
2018-11-23T08:04:03.960Z,977.97
2018-11-23T08:05:03.956Z,977.91
2018-11-23T08:06:03.976Z,977.90
2018-11-23T08:07:03.958Z,977.91
2018-11-23T08:08:03.951Z,978.13
2018-11-23T08:09:03.948Z,978.22
2018-11-23T08:10:03.940Z,978.04
2018-11-23T08:11:03.968Z,978.06
2018-11-23T08:12:03.940Z,978.00
2018-11-23T08:13:03.933Z,978.04
2018-11-23T08:14:03.939Z,978.08
2018-11-23T08:15:03.931Z,978.23
2018-11-23T08:16:03.967Z,978.28
2018-11-23T08:17:03.930Z,978.17
2018-11-23T08:18:03.946Z,978.16
2018-11-23T08:19:03.932Z,978.06
2018-11-23T08:20:03.939Z,977.95
2018-11-23T08:21:03.962Z,977.95
2018-11-23T08:22:03.917Z,977.92
2018-11-23T08:23:03.915Z,977.87
2018-11-23T08:24:03.915Z,977.90
2018-11-23T08:25:03.923Z,977.84
2018-11-23T08:26:03.930Z,977.94
2018-11-23T08:27:03.910Z,978.00
2018-11-23T08:28:03.908Z,977.99
2018-11-23T08:29:03.902Z,977.96
2018-11-23T08:30:03.898Z,978.00
2018-11-23T08:31:03.929Z,978.01
2018-11-23T08:32:03.907Z,978.06
2018-11-23T08:33:03.900Z,977.96
2018-11-23T08:34:03.890Z,977.92
2018-11-23T08:35:04.442Z,978.08
2018-11-23T08:36:03.919Z,978.19
2018-11-23T08:37:03.878Z,978.26
2018-11-23T08:38:03.868Z,978.34
2018-11-23T08:39:04.800Z,978.48
2018-11-23T08:40:03.865Z,978.72
2018-11-23T08:41:03.920Z,978.80
2018-11-23T08:42:03.870Z,979.01
2018-11-23T08:43:03.875Z,979.08
2018-11-23T08:44:03.869Z,979.07
2018-11-23T08:45:03.879Z,979.21
2018-11-23T08:46:03.906Z,979.23
2018-11-23T08:47:04.445Z,979.17
2018-11-23T08:48:03.876Z,978.96
2018-11-23T08:49:04.439Z,978.90
2018-11-23T08:50:03.901Z,979.01
2018-11-23T08:51:03.865Z,979.12
2018-11-23T08:52:03.866Z,979.20
2018-11-23T08:53:03.875Z,979.36
2018-11-23T08:54:03.882Z,979.57
2018-11-23T08:55:03.915Z,979.69
2018-11-23T08:56:03.886Z,979.56
2018-11-23T08:57:03.918Z,979.40
2018-11-23T08:58:03.874Z,979.24
2018-11-23T08:59:03.880Z,979.15
2018-11-23T09:00:03.887Z,979.17
2018-11-23T09:01:03.912Z,979.08
2018-11-23T09:02:05.655Z,979.36
2018-11-23T09:03:03.892Z,979.60
2018-11-23T09:04:03.889Z,979.54
2018-11-23T09:05:03.889Z,979.58
2018-11-23T09:06:03.920Z,979.47
2018-11-23T09:07:05.420Z,979.51
2018-11-23T09:08:03.906Z,979.58
2018-11-23T09:09:03.917Z,979.65
2018-11-23T09:10:03.916Z,979.65
2018-11-23T09:11:03.964Z,979.56
2018-11-23T09:12:03.925Z,979.66
2018-11-23T09:13:03.900Z,979.70
2018-11-23T09:14:03.914Z,979.65
2018-11-23T09:15:04.485Z,979.86
2018-11-23T09:16:05.854Z,979.86
2018-11-23T09:17:03.933Z,979.91
2018-11-23T09:18:03.936Z,979.90
2018-11-23T09:19:03.940Z,979.66
2018-11-23T09:20:04.815Z,979.43
2018-11-23T09:21:03.976Z,979.44
2018-11-23T09:22:03.953Z,979.62
2018-11-23T09:23:03.971Z,979.57
2018-11-23T09:24:03.968Z,979.63
2018-11-23T09:25:03.969Z,979.82
2018-11-23T09:26:04.001Z,979.70
2018-11-23T09:27:03.976Z,979.71
2018-11-23T09:28:03.971Z,979.60
2018-11-23T09:29:03.975Z,979.52
2018-11-23T09:30:03.988Z,979.39
2018-11-23T09:31:04.020Z,979.57
2018-11-23T09:32:03.992Z,979.44
2018-11-23T09:33:03.991Z,979.43
2018-11-23T09:34:04.008Z,979.67
2018-11-23T09:35:04.046Z,979.65
2018-11-23T09:36:04.068Z,979.50
2018-11-23T09:37:04.053Z,979.38
2018-11-23T09:38:04.034Z,979.81
2018-11-23T09:39:04.029Z,979.85
2018-11-23T09:40:04.035Z,979.64
2018-11-23T09:41:04.056Z,979.68
2018-11-23T09:42:04.819Z,979.88
2018-11-23T09:43:04.070Z,979.82
2018-11-23T09:44:04.075Z,979.78
2018-11-23T09:45:04.068Z,979.72
2018-11-23T09:46:04.090Z,979.61
2018-11-23T09:47:10.024Z,979.46
2018-11-23T09:48:04.077Z,979.40
2018-11-23T09:49:04.078Z,979.76
2018-11-23T09:50:04.083Z,979.67
2018-11-23T09:51:04.114Z,979.60
2018-11-23T09:52:04.094Z,979.77
2018-11-23T09:53:04.096Z,979.65
2018-11-23T09:54:04.102Z,979.34
2018-11-23T09:55:04.211Z,979.22
2018-11-23T09:56:04.279Z,979.34
2018-11-23T09:57:04.127Z,979.11
2018-11-23T09:58:04.233Z,979.00
2018-11-23T09:59:04.193Z,979.37
2018-11-23T10:00:04.136Z,979.27
2018-11-23T10:01:04.168Z,979.26
2018-11-23T10:02:04.146Z,979.00
2018-11-23T10:03:04.194Z,979.00
2018-11-23T10:04:04.157Z,979.12
2018-11-23T10:05:04.191Z,979.12
2018-11-23T10:06:04.170Z,979.07
2018-11-23T10:07:04.194Z,979.02
2018-11-23T10:08:04.178Z,978.97
2018-11-23T10:09:04.182Z,978.83
2018-11-23T10:10:04.197Z,979.06
2018-11-23T10:11:04.213Z,979.16
2018-11-23T10:12:04.190Z,979.08
2018-11-23T10:13:04.190Z,978.97
2018-11-23T10:14:04.199Z,978.85
2018-11-23T10:15:04.231Z,978.86
2018-11-23T10:16:04.212Z,978.83
2018-11-23T10:17:04.214Z,978.84
2018-11-23T10:18:04.216Z,978.86
2018-11-23T10:19:04.223Z,978.95
2018-11-23T10:20:04.254Z,978.99
2018-11-23T10:21:04.229Z,978.93
2018-11-23T10:22:04.235Z,978.95
2018-11-23T10:23:04.240Z,979.01
2018-11-23T10:24:04.237Z,978.98
2018-11-23T10:25:04.273Z,978.88
2018-11-23T10:26:04.265Z,978.91
2018-11-23T10:27:04.270Z,978.92
2018-11-23T10:28:04.253Z,979.05
2018-11-23T10:29:04.292Z,979.17
2018-11-23T10:30:04.266Z,979.19
2018-11-23T10:31:04.270Z,979.20
2018-11-23T10:32:04.309Z,979.15
2018-11-23T10:33:04.327Z,979.24
2018-11-23T10:34:04.316Z,979.34
2018-11-23T10:35:04.290Z,979.29
2018-11-23T10:36:04.296Z,979.23
2018-11-23T10:37:04.301Z,979.10
2018-11-23T10:38:04.308Z,979.14
2018-11-23T10:39:04.344Z,979.25
2018-11-23T10:40:04.358Z,979.15
2018-11-23T10:41:04.323Z,978.97
2018-11-23T10:42:04.329Z,978.98
2018-11-23T10:43:04.343Z,979.01
2018-11-23T10:44:04.345Z,978.94
2018-11-23T10:45:04.370Z,978.94
2018-11-23T10:46:04.349Z,978.89
2018-11-23T10:47:04.358Z,978.84
2018-11-23T10:48:04.429Z,978.82
2018-11-23T10:49:04.394Z,978.76
2018-11-23T10:50:04.402Z,978.70
2018-11-23T10:51:04.385Z,978.78
2018-11-23T10:52:04.390Z,978.86
2018-11-23T10:53:04.393Z,978.91
2018-11-23T10:54:04.399Z,978.95
2018-11-23T10:55:04.432Z,978.96
2018-11-23T10:56:04.412Z,979.04
2018-11-23T10:57:04.432Z,979.14
2018-11-23T10:58:04.417Z,979.13
2018-11-23T10:59:04.424Z,979.09
2018-11-23T11:00:04.457Z,979.14
2018-11-23T11:01:04.477Z,978.95
2018-11-23T11:02:04.436Z,978.80
2018-11-23T11:03:04.453Z,978.82
2018-11-23T11:04:04.459Z,979.02
2018-11-23T11:05:04.489Z,979.14
2018-11-23T11:06:04.464Z,979.13
2018-11-23T11:07:04.469Z,978.99
2018-11-23T11:08:04.485Z,979.02
2018-11-23T11:09:04.485Z,979.20
2018-11-23T11:10:04.518Z,979.27
2018-11-23T11:11:04.494Z,979.29
2018-11-23T11:12:04.507Z,979.09
2018-11-23T11:13:04.509Z,978.94
2018-11-23T11:14:04.516Z,978.94
2018-11-23T11:15:04.553Z,978.78
2018-11-23T11:16:04.529Z,978.86
2018-11-23T11:17:04.544Z,978.76
2018-11-23T11:18:04.545Z,978.93
2018-11-23T11:19:04.549Z,978.87
2018-11-23T11:20:04.584Z,978.96
2018-11-23T11:21:04.561Z,979.04
2018-11-23T11:22:04.568Z,979.00
2018-11-23T11:23:04.572Z,978.98
2018-11-23T11:24:04.582Z,979.02
2018-11-23T11:25:04.647Z,978.95
2018-11-23T11:26:04.592Z,978.90
2018-11-23T11:27:04.629Z,978.96
2018-11-23T11:28:04.603Z,979.00
2018-11-23T11:29:04.640Z,979.01
2018-11-23T11:30:04.616Z,979.08
2018-11-23T11:31:04.628Z,979.08
2018-11-23T11:32:04.633Z,979.04
2018-11-23T11:33:04.668Z,978.87
2018-11-23T11:34:04.644Z,978.83
2018-11-23T11:35:04.680Z,978.89
2018-11-23T11:36:04.660Z,978.97
2018-11-23T11:37:04.664Z,979.11
2018-11-23T11:38:04.673Z,979.11
2018-11-23T11:39:04.684Z,979.07
2018-11-23T11:40:04.720Z,978.90
2018-11-23T11:41:04.697Z,978.79
2018-11-23T11:42:04.699Z,978.71
2018-11-23T11:43:04.712Z,978.83
2018-11-23T11:44:04.720Z,978.77
2018-11-23T11:45:04.751Z,978.87
2018-11-23T11:46:04.732Z,979.02
2018-11-23T11:47:04.740Z,979.04
2018-11-23T11:48:04.747Z,978.98
2018-11-23T11:49:04.816Z,978.96
2018-11-23T11:50:04.792Z,979.05
2018-11-23T11:51:04.771Z,979.07
2018-11-23T11:52:04.776Z,979.07
2018-11-23T11:53:04.812Z,978.91
2018-11-23T11:54:04.811Z,978.75
2018-11-23T11:55:04.827Z,978.76
2018-11-23T11:56:04.834Z,978.82
2018-11-23T11:57:04.816Z,978.82
2018-11-23T11:58:04.820Z,978.73
2018-11-23T11:59:04.827Z,978.79
2018-11-23T12:00:04.906Z,978.85
2018-11-23T12:01:04.847Z,978.90
2018-11-23T12:02:10.113Z,978.85
2018-11-23T12:03:04.893Z,978.83
2018-11-23T12:04:04.864Z,978.85
2018-11-23T12:05:04.871Z,978.80
2018-11-23T12:06:04.909Z,978.63
2018-11-23T12:07:04.889Z,978.41
2018-11-23T12:08:04.896Z,978.29
2018-11-23T12:09:04.905Z,978.31
2018-11-23T12:10:04.909Z,978.45
2018-11-23T12:11:04.944Z,978.56
2018-11-23T12:12:04.926Z,978.46
2018-11-23T12:13:04.932Z,978.34
2018-11-23T12:14:04.937Z,978.26
2018-11-23T12:15:08.862Z,978.27
2018-11-23T12:16:04.977Z,978.44
2018-11-23T12:17:04.955Z,978.57
2018-11-23T12:18:04.968Z,978.59
2018-11-23T12:19:05.641Z,978.70
2018-11-23T12:20:05.004Z,978.82
2018-11-23T12:21:04.981Z,978.76
2018-11-23T12:22:05.019Z,978.77
2018-11-23T12:23:05.003Z,978.78
2018-11-23T12:24:05.000Z,978.73
2018-11-23T12:25:05.006Z,978.67
2018-11-23T12:26:05.038Z,978.58
2018-11-23T12:27:05.018Z,978.55
2018-11-23T12:28:05.026Z,978.57